createdAt,value
2022-12-25T00:02:23.475Z,109.87
2022-12-25T00:04:51.292Z,109.23
2022-12-25T00:07:19.055Z,121.00
2022-12-25T00:09:46.818Z,136.70
2022-12-25T00:12:16.153Z,118.87
2022-12-25T00:14:44.034Z,189.93
2022-12-25T00:17:11.794Z,117.13
2022-12-25T00:19:39.660Z,132.73
2022-12-25T00:22:07.580Z,128.70
2022-12-25T00:24:35.294Z,120.87
2022-12-25T00:27:03.115Z,120.50
2022-12-25T00:29:32.219Z,115.33
2022-12-25T00:32:00.485Z,133.57
2022-12-25T00:34:28.410Z,159.67
2022-12-25T00:36:56.250Z,337.60
2022-12-25T00:39:24.360Z,500.43
2022-12-25T00:42:10.781Z,109.47
2022-12-25T00:44:39.865Z,111.33
2022-12-25T00:47:07.668Z,133.77
2022-12-25T00:49:35.567Z,110.57
2022-12-25T00:52:03.905Z,102.33
2022-12-25T00:54:31.712Z,89.00
2022-12-25T00:56:59.647Z,96.73
2022-12-25T00:59:31.223Z,106.13
2022-12-25T01:02:21.387Z,97.50
2022-12-25T01:04:50.728Z,89.90
2022-12-25T01:07:19.286Z,93.43
2022-12-25T01:10:06.099Z,89.20
2022-12-25T01:12:38.461Z,85.97
2022-12-25T01:15:09.267Z,76.43
2022-12-25T01:17:38.506Z,72.73
2022-12-25T01:20:08.098Z,76.73
2022-12-25T01:22:36.077Z,78.80
2022-12-25T01:25:05.600Z,78.93
2022-12-25T01:27:33.690Z,73.03
2022-12-25T01:30:01.601Z,81.97
2022-12-25T01:32:29.413Z,79.40
2022-12-25T01:34:58.580Z,74.90
2022-12-25T01:37:26.365Z,77.77
2022-12-25T01:39:54.119Z,75.03
2022-12-25T01:42:26.157Z,72.43
2022-12-25T01:45:37.661Z,78.47
2022-12-25T01:48:14.641Z,58.00
2022-12-25T01:50:49.596Z,64.67
2022-12-25T01:53:17.727Z,71.45
2022-12-25T01:55:50.991Z,58.00
2022-12-25T01:58:19.132Z,65.07
2022-12-25T02:00:47.324Z,68.87
2022-12-25T02:03:15.510Z,64.97
2022-12-25T02:05:47.007Z,66.53
2022-12-25T02:08:19.511Z,65.73
2022-12-25T02:10:47.607Z,55.20
2022-12-25T02:13:19.446Z,68.97
2022-12-25T02:16:01.233Z,56.93
2022-12-25T02:18:40.066Z,60.33
2022-12-25T02:21:57.877Z,58.47
2022-12-25T02:24:53.123Z,63.87
2022-12-25T02:27:54.819Z,59.03
2022-12-25T02:30:23.997Z,52.10
2022-12-25T02:33:18.966Z,56.03
2022-12-25T02:35:52.138Z,56.73
2022-12-25T02:38:29.743Z,53.57
2022-12-25T02:41:03.835Z,57.00
2022-12-25T02:43:58.177Z,60.73
2022-12-25T02:46:51.543Z,61.67
2022-12-25T02:49:43.379Z,50.90
2022-12-25T02:52:35.759Z,59.07
2022-12-25T02:55:30.156Z,53.13
2022-12-25T02:58:23.036Z,53.53
2022-12-25T03:01:18.214Z,54.57
2022-12-25T03:04:11.964Z,62.77
2022-12-25T03:06:55.492Z,51.73
2022-12-25T03:09:47.887Z,55.87
2022-12-25T03:12:26.448Z,52.50
2022-12-25T03:15:13.006Z,54.67
2022-12-25T03:17:41.052Z,45.03
2022-12-25T03:20:29.897Z,42.57
2022-12-25T03:23:16.979Z,51.93
2022-12-25T03:26:03.719Z,53.67
2022-12-25T03:28:31.609Z,56.97
2022-12-25T03:31:13.340Z,50.17
2022-12-25T03:34:38.816Z,54.00
2022-12-25T03:37:26.386Z,44.03
2022-12-25T03:40:24.197Z,54.07
2022-12-25T03:43:20.351Z,62.00
2022-12-25T03:46:15.440Z,49.72
2022-12-25T03:49:10.027Z,49.30
2022-12-25T03:52:01.849Z,61.30
2022-12-25T03:54:53.783Z,56.63
2022-12-25T03:57:40.162Z,44.20
2022-12-25T04:00:28.421Z,57.07
2022-12-25T04:03:15.050Z,48.93
2022-12-25T04:06:12.424Z,48.60
2022-12-25T04:08:58.596Z,50.57
2022-12-25T04:14:51.133Z,56.80
2022-12-25T04:17:37.520Z,58.83
2022-12-25T04:20:26.389Z,53.57
2022-12-25T04:23:12.648Z,62.47
2022-12-25T04:25:59.045Z,48.40
2022-12-25T04:28:46.701Z,59.13
2022-12-25T04:31:33.182Z,58.00
2022-12-25T04:34:19.677Z,50.77
2022-12-25T04:36:47.493Z,45.10
2022-12-25T04:39:15.315Z,51.83
2022-12-25T04:41:43.122Z,50.80
2022-12-25T04:44:12.618Z,49.00
2022-12-25T04:46:40.519Z,55.80
2022-12-25T04:49:08.337Z,42.27
2022-12-25T04:51:37.074Z,47.40
2022-12-25T04:54:05.348Z,43.80
2022-12-25T04:56:33.599Z,43.70
2022-12-25T04:59:01.525Z,42.63
2022-12-25T05:01:30.750Z,42.17
2022-12-25T05:03:58.818Z,34.90
2022-12-25T05:06:26.857Z,41.60
2022-12-25T05:08:54.768Z,36.33
2022-12-25T05:11:22.651Z,37.10
2022-12-25T05:13:50.534Z,36.57
2022-12-25T05:16:20.894Z,35.17
2022-12-25T05:18:52.010Z,39.37
2022-12-25T05:21:20.457Z,28.97
2022-12-25T05:23:50.683Z,34.57
2022-12-25T05:26:23.031Z,30.20
2022-12-25T05:28:51.186Z,33.43
2022-12-25T05:31:19.274Z,38.27
2022-12-25T05:33:51.554Z,39.37
2022-12-25T05:36:19.820Z,33.23
2022-12-25T05:38:47.693Z,43.97
2022-12-25T05:41:15.521Z,30.73
2022-12-25T05:43:43.347Z,36.63
2022-12-25T05:46:13.706Z,31.80
2022-12-25T05:48:41.517Z,32.87
2022-12-25T05:51:14.330Z,35.57
2022-12-25T05:53:43.434Z,35.87
2022-12-25T05:56:11.326Z,40.47
2022-12-25T05:58:41.158Z,44.27
2022-12-25T06:01:15.655Z,40.37
2022-12-25T06:03:43.697Z,33.00
2022-12-25T06:06:13.836Z,27.43
2022-12-25T06:08:42.005Z,40.13
2022-12-25T06:11:12.528Z,29.23
2022-12-25T06:13:40.616Z,37.80
2022-12-25T06:16:11.812Z,38.77
2022-12-25T06:18:45.451Z,36.47
2022-12-25T06:21:15.926Z,48.50
2022-12-25T06:23:44.556Z,35.80
2022-12-25T06:26:16.059Z,45.00
2022-12-25T06:28:44.686Z,38.83
2022-12-25T06:31:16.193Z,31.57
2022-12-25T06:33:44.643Z,36.53
2022-12-25T06:36:17.801Z,33.80
2022-12-25T06:38:46.218Z,34.53
2022-12-25T06:41:17.211Z,40.40
2022-12-25T06:43:49.281Z,39.20
2022-12-25T06:46:17.882Z,39.97
2022-12-25T06:48:49.719Z,34.97
2022-12-25T06:51:21.728Z,38.47
2022-12-25T06:53:51.740Z,35.90
2022-12-25T06:56:23.918Z,34.73
2022-12-25T06:58:55.214Z,33.73
2022-12-25T07:01:27.414Z,36.83
2022-12-25T07:03:59.870Z,38.03
2022-12-25T07:06:29.417Z,36.80
2022-12-25T07:08:57.435Z,36.53
2022-12-25T07:11:26.248Z,39.03
2022-12-25T07:13:54.033Z,42.20
2022-12-25T07:16:21.983Z,43.53
2022-12-25T07:18:49.774Z,37.40
2022-12-25T07:21:20.257Z,42.30
2022-12-25T07:23:50.259Z,35.47
2022-12-25T07:26:18.095Z,38.53
2022-12-25T07:28:45.869Z,40.77
2022-12-25T07:31:16.828Z,36.20
2022-12-25T07:33:44.895Z,36.73
2022-12-25T07:36:14.262Z,37.23
2022-12-25T07:38:42.715Z,38.37
2022-12-25T07:41:13.054Z,34.77
2022-12-25T07:43:41.375Z,40.03
2022-12-25T07:46:10.726Z,33.63
2022-12-25T07:48:39.013Z,33.77
2022-12-25T07:51:10.951Z,32.33
2022-12-25T07:53:39.711Z,37.70
2022-12-25T07:56:12.699Z,29.67
2022-12-25T07:58:41.376Z,40.10
2022-12-25T08:01:14.910Z,26.57
2022-12-25T08:03:42.952Z,28.93
2022-12-25T08:06:11.870Z,29.67
2022-12-25T08:08:40.281Z,33.47
2022-12-25T08:11:09.881Z,26.07
2022-12-25T08:13:39.166Z,34.17
2022-12-25T08:16:10.596Z,34.03
2022-12-25T08:18:39.605Z,30.30
2022-12-25T08:21:11.138Z,30.63
2022-12-25T08:23:42.230Z,30.53
2022-12-25T08:26:14.023Z,27.37
2022-12-25T08:28:43.284Z,28.03
2022-12-25T08:31:19.142Z,24.93
2022-12-25T08:33:48.201Z,26.63
2022-12-25T08:36:17.063Z,31.93
2022-12-25T08:38:46.097Z,24.80
2022-12-25T08:41:15.883Z,25.77
2022-12-25T08:43:45.081Z,30.27
2022-12-25T08:46:13.269Z,26.60
2022-12-25T08:48:42.766Z,30.53
2022-12-25T08:51:14.734Z,26.37
2022-12-25T08:53:42.938Z,26.30
2022-12-25T08:56:11.711Z,24.67
2022-12-25T08:58:39.955Z,28.73
2022-12-25T09:01:09.226Z,32.53
2022-12-25T09:03:37.403Z,31.07
2022-12-25T09:06:08.622Z,29.13
2022-12-25T09:08:41.121Z,22.93
2022-12-25T09:11:15.308Z,24.60
2022-12-25T09:13:43.626Z,22.67
2022-12-25T09:16:15.871Z,21.60
2022-12-25T09:18:43.837Z,18.40
2022-12-25T09:21:15.271Z,22.27
2022-12-25T09:23:44.567Z,18.43
2022-12-25T09:26:15.865Z,22.13
2022-12-25T09:28:50.732Z,26.03
2022-12-25T09:31:23.041Z,21.17
2022-12-25T09:33:51.681Z,21.27
2022-12-25T09:36:21.277Z,19.57
2022-12-25T09:38:49.185Z,20.03
2022-12-25T09:41:27.052Z,20.70
2022-12-25T09:44:02.837Z,22.67
2022-12-25T09:46:41.362Z,23.33
2022-12-25T09:49:21.427Z,25.83
2022-12-25T09:51:56.029Z,27.23
2022-12-25T09:54:39.800Z,21.03
2022-12-25T09:57:12.159Z,23.97
2022-12-25T09:59:43.013Z,21.40
2022-12-25T10:02:36.084Z,21.70
2022-12-25T10:05:25.565Z,23.47
2022-12-25T10:08:08.265Z,22.90
2022-12-25T10:10:50.906Z,21.63
2022-12-25T10:13:49.433Z,27.20
2022-12-25T10:16:29.444Z,27.10
2022-12-25T10:19:12.828Z,26.73
2022-12-25T10:21:42.081Z,28.17
2022-12-25T10:24:28.350Z,27.77
2022-12-25T10:26:57.185Z,22.30
2022-12-25T10:29:32.646Z,27.00
2022-12-25T10:32:00.805Z,24.98
2022-12-25T10:34:30.208Z,28.63
2022-12-25T10:36:58.839Z,25.17
2022-12-25T10:39:26.842Z,25.80
2022-12-25T10:42:17.723Z,28.80
2022-12-25T10:44:56.587Z,27.33
2022-12-25T10:47:28.301Z,23.97
2022-12-25T10:49:59.114Z,27.13
2022-12-25T10:52:29.585Z,25.87
2022-12-25T10:54:57.540Z,26.97
2022-12-25T10:57:27.855Z,25.90
2022-12-25T10:59:56.995Z,28.90
2022-12-25T11:02:28.619Z,25.30
2022-12-25T11:05:05.492Z,26.00
2022-12-25T11:07:46.953Z,28.00
2022-12-25T11:10:22.913Z,24.67
2022-12-25T11:12:53.201Z,18.73
2022-12-25T11:15:37.668Z,21.83
2022-12-25T11:18:19.867Z,20.13
2022-12-25T11:20:51.756Z,23.53
2022-12-25T11:23:22.689Z,21.40
2022-12-25T11:25:58.291Z,26.80
2022-12-25T11:28:28.602Z,21.75
2022-12-25T11:31:02.776Z,22.73
2022-12-25T11:33:36.664Z,21.03
2022-12-25T11:36:17.316Z,23.33
2022-12-25T11:38:45.496Z,17.70
2022-12-25T11:41:20.576Z,26.57
2022-12-25T11:43:56.186Z,26.02
2022-12-25T11:46:32.813Z,22.20
2022-12-25T11:49:07.285Z,19.60
2022-12-25T11:51:44.657Z,27.42
2022-12-25T11:54:22.588Z,19.43
2022-12-25T11:56:51.104Z,27.43
2022-12-25T11:59:27.642Z,22.50
2022-12-25T12:02:03.442Z,25.60
2022-12-25T12:04:42.649Z,26.53
2022-12-25T12:07:23.627Z,30.00
2022-12-25T12:10:03.510Z,20.10
2022-12-25T12:12:49.003Z,23.60
2022-12-25T12:18:08.835Z,21.53
2022-12-25T12:20:37.683Z,28.50
2022-12-25T12:23:16.686Z,21.33
2022-12-25T12:25:45.781Z,16.80
2022-12-25T12:28:24.232Z,21.33
2022-12-25T12:31:03.506Z,24.33
2022-12-25T12:33:38.235Z,24.60
2022-12-25T12:36:11.324Z,18.55
2022-12-25T12:38:44.691Z,25.73
2022-12-25T12:41:14.586Z,30.07
2022-12-25T12:43:46.951Z,32.37
2022-12-25T12:46:29.796Z,31.67
2022-12-25T12:49:19.480Z,36.33
2022-12-25T12:51:48.161Z,28.67
2022-12-25T12:54:22.254Z,32.23
2022-12-25T12:56:58.718Z,35.37
2022-12-25T12:59:36.835Z,32.20
2022-12-25T13:02:33.956Z,40.00
2022-12-25T13:05:05.812Z,39.77
2022-12-25T13:07:57.415Z,34.70
2022-12-25T13:10:34.618Z,34.33
2022-12-25T13:13:12.521Z,34.60
2022-12-25T13:15:45.771Z,39.97
2022-12-25T13:18:14.849Z,37.27
2022-12-25T13:20:54.847Z,39.73
2022-12-25T13:23:27.935Z,33.57
2022-12-25T13:25:59.937Z,36.00
2022-12-25T13:28:30.479Z,29.27
2022-12-25T13:31:11.275Z,36.60
2022-12-25T13:33:40.895Z,36.60
2022-12-25T13:36:12.558Z,41.67
2022-12-25T13:38:45.815Z,31.83
2022-12-25T13:41:39.219Z,38.80
2022-12-25T13:44:17.512Z,33.23
2022-12-25T13:46:45.712Z,31.23
2022-12-25T13:49:16.893Z,36.07
2022-12-25T13:51:46.661Z,31.87
2022-12-25T13:54:17.931Z,26.43
2022-12-25T13:56:51.537Z,30.70
2022-12-25T13:59:22.953Z,26.73
2022-12-25T14:01:54.107Z,29.27
2022-12-25T14:04:24.245Z,27.83
2022-12-25T14:06:53.985Z,35.93
2022-12-25T14:09:23.319Z,31.60
2022-12-25T14:11:52.997Z,36.23
2022-12-25T14:14:24.242Z,32.23
2022-12-25T14:16:57.037Z,25.63
2022-12-25T14:19:28.992Z,25.53
2022-12-25T14:22:04.354Z,33.00
2022-12-25T14:24:34.835Z,41.78
2022-12-25T14:27:07.313Z,28.63
2022-12-25T14:29:40.048Z,32.80
2022-12-25T14:32:15.570Z,34.73
2022-12-25T14:34:46.306Z,48.85
2022-12-25T14:37:20.760Z,49.43
2022-12-25T14:39:57.181Z,40.30
2022-12-25T14:42:29.975Z,49.63
2022-12-25T14:45:03.410Z,42.00
2022-12-25T14:47:33.608Z,46.33
2022-12-25T14:50:01.530Z,57.53
2022-12-25T14:52:39.202Z,51.23
2022-12-25T14:55:20.101Z,54.87
2022-12-25T14:57:55.488Z,72.00
2022-12-25T15:00:29.584Z,38.75
2022-12-25T15:03:00.385Z,59.63
2022-12-25T15:05:33.322Z,67.07
2022-12-25T15:08:24.234Z,49.27
2022-12-25T15:11:00.356Z,45.23
2022-12-25T15:13:32.349Z,47.20
2022-12-25T15:16:08.903Z,41.37
2022-12-25T15:18:41.364Z,36.27
2022-12-25T15:21:16.694Z,49.70
2022-12-25T15:23:44.844Z,47.40
2022-12-25T15:26:14.626Z,52.23
2022-12-25T15:28:43.774Z,51.03
2022-12-25T15:31:22.105Z,65.90
2022-12-25T15:33:50.513Z,64.30
2022-12-25T15:36:18.348Z,66.20
2022-12-25T15:38:46.441Z,61.17
2022-12-25T15:41:37.533Z,55.63
2022-12-25T15:44:07.902Z,57.97
2022-12-25T15:46:35.769Z,53.07
2022-12-25T15:49:03.613Z,63.90
2022-12-25T15:51:31.861Z,64.90
2022-12-25T15:53:59.754Z,63.53
2022-12-25T15:56:29.678Z,52.13
2022-12-25T15:58:57.452Z,57.97
2022-12-25T16:01:26.676Z,56.37
2022-12-25T16:03:54.677Z,43.67
2022-12-25T16:06:22.427Z,46.77
2022-12-25T16:08:50.147Z,48.53
2022-12-25T16:11:17.903Z,49.67
2022-12-25T16:13:45.630Z,37.67
2022-12-25T16:16:13.504Z,55.23
2022-12-25T16:18:47.436Z,78.60
2022-12-25T16:21:19.811Z,69.27
2022-12-25T16:23:48.021Z,63.83
2022-12-25T16:26:16.281Z,79.50
2022-12-25T16:28:44.307Z,78.20
2022-12-25T16:31:12.332Z,82.83
2022-12-25T16:33:40.300Z,80.53
2022-12-25T16:36:09.828Z,78.40
2022-12-25T16:38:38.296Z,67.87
2022-12-25T16:41:06.029Z,75.93
2022-12-25T16:47:34.374Z,71.73
2022-12-25T16:50:03.885Z,75.57
2022-12-25T16:52:34.677Z,83.60
2022-12-25T16:55:04.002Z,78.10
2022-12-25T16:57:33.151Z,99.10
2022-12-25T17:00:01.159Z,71.70
2022-12-25T17:02:29.162Z,71.13
2022-12-25T17:04:57.163Z,76.87
2022-12-25T17:07:24.922Z,74.73
2022-12-25T17:09:54.092Z,78.67
2022-12-25T17:12:21.849Z,73.97
2022-12-25T17:14:49.540Z,92.03
2022-12-25T17:17:17.338Z,95.67
2022-12-25T17:19:45.354Z,71.40
2022-12-25T17:22:13.230Z,94.60
2022-12-25T17:24:41.475Z,82.60
2022-12-25T17:27:11.171Z,88.23
2022-12-25T17:29:39.845Z,89.27
2022-12-25T17:32:08.524Z,107.47
2022-12-25T17:34:36.627Z,115.47
2022-12-25T17:37:05.172Z,161.40
2022-12-25T17:39:33.133Z,113.57
2022-12-25T17:42:01.000Z,112.00
2022-12-25T17:44:30.127Z,131.77
2022-12-25T17:46:57.961Z,158.27
2022-12-25T17:49:26.280Z,106.60
2022-12-25T17:51:56.023Z,218.20
2022-12-25T17:54:23.806Z,175.13
2022-12-25T17:56:51.669Z,175.93
2022-12-25T17:59:20.478Z,227.10
2022-12-25T18:01:49.662Z,117.83
2022-12-25T18:04:18.111Z,469.80
2022-12-25T18:06:46.372Z,249.70
2022-12-25T18:09:14.102Z,504.83
2022-12-25T18:11:43.455Z,150.93
2022-12-25T18:14:14.997Z,248.93
2022-12-25T18:16:45.104Z,381.50
2022-12-25T18:19:15.922Z,399.67
2022-12-25T18:21:43.867Z,400.77
2022-12-25T18:24:12.510Z,562.30
2022-12-25T18:26:40.428Z,438.70
2022-12-25T18:29:08.152Z,356.03
2022-12-25T18:31:36.545Z,234.33
2022-12-25T18:34:04.654Z,613.73
2022-12-25T18:36:34.002Z,768.77
2022-12-25T18:39:01.948Z,799.27
2022-12-25T18:41:30.578Z,719.17
2022-12-25T18:43:59.809Z,617.07
2022-12-25T18:46:27.956Z,648.97
2022-12-25T18:48:57.867Z,785.47
2022-12-25T18:51:29.849Z,762.47
2022-12-25T18:54:04.304Z,720.10
2022-12-25T18:56:32.443Z,748.80
2022-12-25T18:59:00.633Z,578.10
2022-12-25T19:01:28.645Z,531.17
2022-12-25T19:04:04.381Z,534.77
2022-12-25T19:06:33.948Z,306.17
2022-12-25T19:09:08.955Z,209.73
2022-12-25T19:11:46.084Z,266.48
2022-12-25T19:14:15.134Z,313.27
2022-12-25T19:16:43.214Z,234.27
2022-12-25T19:19:11.176Z,299.10
2022-12-25T19:21:38.937Z,336.40
2022-12-25T19:24:07.610Z,274.87
2022-12-25T19:26:35.996Z,203.90
2022-12-25T19:29:05.100Z,208.43
2022-12-25T19:31:32.911Z,165.23
2022-12-25T19:34:00.829Z,141.93
2022-12-25T19:36:28.610Z,116.30
2022-12-25T19:38:56.515Z,127.90
2022-12-25T19:41:24.371Z,113.90
2022-12-25T19:43:52.514Z,126.20
2022-12-25T19:46:26.002Z,110.97
2022-12-25T19:48:55.862Z,98.77
2022-12-25T19:51:26.703Z,68.20
2022-12-25T19:53:58.853Z,86.97
2022-12-25T19:56:28.571Z,79.13
2022-12-25T19:58:57.404Z,69.13
2022-12-25T20:01:29.280Z,75.87
2022-12-25T20:03:57.453Z,57.73
2022-12-25T20:06:28.676Z,58.17
2022-12-25T20:08:59.561Z,50.10
2022-12-25T20:11:30.649Z,46.70
2022-12-25T20:13:59.657Z,51.27
2022-12-25T20:16:29.018Z,40.40
2022-12-25T20:18:58.622Z,57.27
2022-12-25T20:21:29.957Z,41.53
2022-12-25T20:23:58.830Z,39.73
2022-12-25T20:26:29.958Z,45.57
2022-12-25T20:28:58.980Z,42.73
2022-12-25T20:31:30.885Z,40.63
2022-12-25T20:34:04.036Z,51.33
2022-12-25T20:36:36.828Z,47.33
2022-12-25T20:39:09.640Z,45.63
2022-12-25T20:41:38.753Z,47.07
2022-12-25T20:44:09.803Z,48.80
2022-12-25T20:46:39.119Z,40.93
2022-12-25T20:49:07.263Z,40.67
2022-12-25T20:51:35.461Z,44.27
2022-12-25T20:54:07.619Z,42.83
2022-12-25T20:56:36.559Z,37.70
2022-12-25T20:59:04.396Z,44.63
2022-12-25T21:01:32.526Z,43.00
2022-12-25T21:04:01.976Z,45.10
2022-12-25T21:06:29.811Z,43.73
2022-12-25T21:08:57.685Z,49.83
2022-12-25T21:11:26.273Z,37.37
2022-12-25T21:13:53.963Z,36.70
2022-12-25T21:16:22.987Z,41.60
2022-12-25T21:18:53.519Z,38.00
2022-12-25T21:21:23.701Z,35.17
2022-12-25T21:23:51.605Z,31.17
2022-12-25T21:26:23.314Z,35.23
2022-12-25T21:28:54.981Z,36.60
2022-12-25T21:31:24.487Z,35.13
2022-12-25T21:33:57.521Z,38.63
2022-12-25T21:36:29.310Z,42.70
2022-12-25T21:39:00.047Z,36.70
2022-12-25T21:41:30.545Z,42.23
2022-12-25T21:43:59.301Z,38.83
2022-12-25T21:46:28.816Z,45.17
2022-12-25T21:48:58.377Z,44.50
2022-12-25T21:51:49.653Z,40.47
2022-12-25T21:54:19.898Z,42.27
2022-12-25T21:56:49.316Z,47.27
2022-12-25T21:59:21.101Z,40.20
2022-12-25T22:01:50.712Z,42.23
2022-12-25T22:04:21.779Z,51.23
2022-12-25T22:07:10.406Z,51.07
2022-12-25T22:09:38.255Z,51.60
2022-12-25T22:12:31.943Z,45.40
2022-12-25T22:15:02.799Z,42.35
2022-12-25T22:17:52.213Z,50.07
2022-12-25T22:20:24.367Z,63.03
2022-12-25T22:22:54.485Z,66.10
2022-12-25T22:25:24.032Z,79.43
2022-12-25T22:27:52.866Z,83.37
2022-12-25T22:30:23.778Z,95.57
2022-12-25T22:32:52.234Z,96.87
2022-12-25T22:35:22.866Z,100.53
2022-12-25T22:37:51.171Z,105.57
2022-12-25T22:40:20.956Z,104.67
2022-12-25T22:42:49.136Z,113.23
2022-12-25T22:45:17.269Z,97.00
2022-12-25T22:47:45.053Z,133.27
2022-12-25T22:50:15.048Z,160.03
2022-12-25T22:52:45.596Z,91.37
2022-12-25T22:55:17.257Z,98.80
2022-12-25T22:57:46.389Z,105.30
2022-12-25T23:00:14.644Z,89.20
2022-12-25T23:02:42.926Z,94.47
2022-12-25T23:05:11.024Z,91.53
2022-12-25T23:07:39.082Z,109.83
2022-12-25T23:10:08.610Z,107.23
2022-12-25T23:12:55.105Z,99.03
2022-12-25T23:15:24.414Z,82.17
2022-12-25T23:18:11.521Z,103.57
2022-12-25T23:20:57.583Z,84.27
2022-12-25T23:26:13.583Z,65.65
2022-12-25T23:29:02.115Z,69.60
2022-12-25T23:31:35.339Z,69.63
2022-12-25T23:34:05.221Z,58.67
2022-12-25T23:36:33.825Z,49.93
2022-12-25T23:39:09.171Z,55.13
2022-12-25T23:41:38.820Z,53.30
2022-12-25T23:44:06.888Z,51.20
2022-12-25T23:46:36.458Z,55.93
2022-12-25T23:49:05.116Z,45.90
2022-12-25T23:51:34.964Z,48.23
2022-12-25T23:54:06.381Z,49.57
2022-12-25T23:56:36.100Z,58.47
2022-12-25T23:59:04.579Z,50.67
